Time,TemperatureF,DewpointF,PressureIn,WindDirection,WindDirectionDegrees,WindSpeedMPH,WindSpeedGustMPH,Humidity,HourlyPrecipIn,Conditions,Clouds,dailyrainin,SoftwareType,DateUTC
2013-06-17 00:00:00,64.6,62.2,28.97,WNW,292,1.0,1.0,92,0.00,,,0.00,Wunderground v.1.15,2013-06-17 04:00:00,
2013-06-17 00:05:00,64.5,62.1,28.97,NW,305,1.0,1.0,92,0.00,,,0.00,Wunderground v.1.15,2013-06-17 04:05:00,
2013-06-17 00:15:00,64.6,62.2,28.97,WNW,291,2.0,2.0,92,0.00,,,0.00,Wunderground v.1.15,2013-06-17 04:15:00,
2013-06-17 00:20:00,64.6,62.2,28.97,WNW,290,3.0,4.0,92,0.00,,,0.00,Wunderground v.1.15,2013-06-17 04:20:00,
2013-06-17 00:25:00,64.7,62.3,28.97,WNW,286,3.0,4.0,92,0.00,,,0.00,Wunderground v.1.15,2013-06-17 04:25:00,
2013-06-17 00:30:00,64.8,62.4,28.97,NW,310,4.0,4.0,92,0.00,,,0.00,Wunderground v.1.15,2013-06-17 04:30:00,
2013-06-17 00:35:00,64.8,62.4,28.97,WNW,294,4.0,4.0,92,0.00,,,0.00,Wunderground v.1.15,2013-06-17 04:35:00,
2013-06-17 00:39:00,64.8,62.4,28.96,West,274,3.0,4.0,92,0.00,,,0.00,Wunderground v.1.15,2013-06-17 04:39:00,
2013-06-17 00:44:00,64.8,62.4,28.97,WNW,302,2.0,4.0,92,0.00,,,0.00,Wunderground v.1.15,2013-06-17 04:44:00,
2013-06-17 00:49:00,64.8,62.4,28.97,WNW,286,2.0,2.0,92,0.00,,,0.00,Wunderground v.1.15,2013-06-17 04:49:00,
2013-06-17 00:54:00,64.7,62.0,28.98,ENE,71,1.0,5.0,91,0.00,,,0.00,Wunderground v.1.15,2013-06-17 04:54:00,
2013-06-17 00:59:00,64.4,62.0,28.98,ESE,110,3.0,3.0,92,0.00,,,0.00,Wunderground v.1.15,2013-06-17 04:59:00,
2013-06-17 01:04:00,64.4,62.0,28.97,NW,323,3.0,5.0,92,0.00,,,0.00,Wunderground v.1.15,2013-06-17 05:04:00,
2013-06-17 01:09:00,64.7,62.3,28.97,WNW,283,2.0,2.0,92,0.00,,,0.00,Wunderground v.1.15,2013-06-17 05:09:00,
2013-06-17 01:15:00,64.7,62.3,28.98,ENE,68,3.0,4.0,92,0.00,,,0.00,Wunderground v.1.15,2013-06-17 05:15:00,
2013-06-17 01:20:00,64.8,62.1,28.98,SE,132,6.0,6.0,91,0.00,,,0.00,Wunderground v.1.15,2013-06-17 05:20:00,
2013-06-17 01:25:00,64.9,62.2,28.98,ESE,123,7.0,7.0,91,0.00,,,0.00,Wunderground v.1.15,2013-06-17 05:25:00,
2013-06-17 01:30:00,65.0,62.6,28.98,East,96,3.0,7.0,92,0.00,,,0.00,Wunderground v.1.15,2013-06-17 05:30:00,
2013-06-17 01:35:00,64.5,61.2,28.98,ESE,113,4.0,8.0,89,0.00,,,0.00,Wunderground v.1.15,2013-06-17 05:35:00,
2013-06-17 01:40:00,64.3,60.3,28.98,ESE,119,6.0,6.0,87,0.00,,,0.00,Wunderground v.1.15,2013-06-17 05:40:00,
2013-06-17 01:50:00,64.2,58.9,28.98,SE,130,4.0,5.0,83,0.00,,,0.00,Wunderground v.1.15,2013-06-17 05:50:00,
2013-06-17 01:55:00,63.9,58.3,28.97,SE,128,4.0,5.0,82,0.00,,,0.00,Wunderground v.1.15,2013-06-17 05:55:00,
2013-06-17 02:00:00,64.1,58.8,28.97,WSW,258,4.0,5.0,83,0.00,,,0.00,Wunderground v.1.15,2013-06-17 06:00:00,
2013-06-17 02:05:00,64.3,59.4,28.97,SSE,152,3.0,6.0,84,0.00,,,0.00,Wunderground v.1.15,2013-06-17 06:05:00,
2013-06-17 02:10:00,63.6,59.0,28.97,SSE,148,2.0,2.0,85,0.00,,,0.00,Wunderground v.1.15,2013-06-17 06:10:00,
2013-06-17 02:15:00,63.6,59.0,28.98,WSW,237,1.0,5.0,85,0.00,,,0.00,Wunderground v.1.15,2013-06-17 06:15:00,
2013-06-17 02:20:00,63.6,59.0,28.98,WSW,257,3.0,7.0,85,0.00,,,0.00,Wunderground v.1.15,2013-06-17 06:20:00,
2013-06-17 02:25:00,63.7,59.1,28.98,WSW,252,7.0,7.0,85,0.00,,,0.00,Wunderground v.1.15,2013-06-17 06:25:00,
2013-06-17 02:30:00,64.0,59.7,28.98,WSW,240,5.0,5.0,86,0.00,,,0.00,Wunderground v.1.15,2013-06-17 06:30:00,
2013-06-17 02:35:00,64.1,60.2,28.98,WSW,248,3.0,5.0,87,0.00,,,0.00,Wunderground v.1.15,2013-06-17 06:35:00,
2013-06-17 02:40:00,64.3,60.7,28.98,WNW,283,2.0,2.0,88,0.00,,,0.00,Wunderground v.1.15,2013-06-17 06:40:00,
2013-06-17 02:45:00,64.6,61.3,28.97,WNW,292,0.0,5.0,89,0.00,,,0.00,Wunderground v.1.15,2013-06-17 06:45:00,
2013-06-17 02:55:00,64.7,61.7,28.97,West,260,0.0,5.0,90,0.00,,,0.00,Wunderground v.1.15,2013-06-17 06:55:00,
2013-06-17 03:00:00,64.7,61.7,28.98,NW,306,0.0,5.0,90,0.00,,,0.00,Wunderground v.1.15,2013-06-17 07:00:00,
2013-06-17 03:10:00,64.5,61.8,28.97,WNW,285,1.0,1.0,91,0.00,,,0.00,Wunderground v.1.15,2013-06-17 07:10:00,
2013-06-17 03:15:00,64.4,62.0,28.97,WNW,294,0.0,5.0,92,0.00,,,0.00,Wunderground v.1.15,2013-06-17 07:15:00,
2013-06-17 03:20:00,64.3,61.9,28.97,WNW,296,0.0,5.0,92,0.00,,,0.00,Wunderground v.1.15,2013-06-17 07:20:00,
2013-06-17 03:30:00,64.2,61.8,28.98,WNW,300,0.0,5.0,92,0.00,,,0.00,Wunderground v.1.15,2013-06-17 07:30:00,
2013-06-17 03:35:00,64.3,62.2,28.98,WNW,302,1.0,5.0,93,0.00,,,0.00,Wunderground v.1.15,2013-06-17 07:35:00,
2013-06-17 03:40:00,64.3,62.2,28.97,WNW,294,1.0,5.0,93,0.00,,,0.00,Wunderground v.1.15,2013-06-17 07:40:00,
2013-06-17 03:45:00,64.2,62.1,28.98,WNW,292,2.0,5.0,93,0.00,,,0.00,Wunderground v.1.15,2013-06-17 07:45:00,
2013-06-17 03:50:00,64.2,62.1,28.97,NW,324,3.0,3.0,93,0.00,,,0.00,Wunderground v.1.15,2013-06-17 07:50:00,
2013-06-17 03:55:00,64.1,62.0,28.97,West,278,2.0,5.0,93,0.00,,,0.00,Wunderground v.1.15,2013-06-17 07:55:00,
2013-06-17 04:00:00,64.1,62.0,28.97,WNW,296,2.0,2.0,93,0.00,,,0.00,Wunderground v.1.15,2013-06-17 08:00:00,
2013-06-17 04:05:00,64.0,62.2,28.97,WNW,292,2.0,5.0,94,0.00,,,0.00,Wunderground v.1.15,2013-06-17 08:05:00,
2013-06-17 04:10:00,64.0,62.2,28.97,West,271,2.0,2.0,94,0.00,,,0.00,Wunderground v.1.15,2013-06-17 08:10:00,
2013-06-17 04:15:00,64.0,62.2,28.97,West,281,2.0,7.0,94,0.00,,,0.00,Wunderground v.1.15,2013-06-17 08:15:00,
2013-06-17 04:25:00,63.9,62.1,28.97,West,281,4.0,4.0,94,0.00,,,0.00,Wunderground v.1.15,2013-06-17 08:25:00,
2013-06-17 04:30:00,63.8,62.0,28.97,WNW,301,3.0,5.0,94,0.00,,,0.00,Wunderground v.1.15,2013-06-17 08:30:00,
2013-06-17 04:40:00,63.7,61.9,28.97,NW,304,3.0,5.0,94,0.00,,,0.00,Wunderground v.1.15,2013-06-17 08:40:00,
2013-06-17 04:45:00,63.7,61.9,28.97,WNW,288,3.0,5.0,94,0.00,,,0.00,Wunderground v.1.15,2013-06-17 08:45:00,
2013-06-17 04:50:00,63.6,61.8,28.97,WNW,302,2.0,2.0,94,0.00,,,0.00,Wunderground v.1.15,2013-06-17 08:50:00,
2013-06-17 04:55:00,63.6,61.8,28.97,NW,306,2.0,5.0,94,0.00,,,0.00,Wunderground v.1.15,2013-06-17 08:55:00,
2013-06-17 05:00:00,63.6,61.8,28.97,West,279,3.0,5.0,94,0.00,,,0.00,Wunderground v.1.15,2013-06-17 09:00:00,
2013-06-17 05:05:00,63.5,61.7,28.97,WNW,291,2.0,5.0,94,0.00,,,0.00,Wunderground v.1.15,2013-06-17 09:05:00,
2013-06-17 05:10:00,63.5,62.0,28.98,WNW,292,2.0,5.0,95,0.00,,,0.00,Wunderground v.1.15,2013-06-17 09:10:00,
2013-06-17 05:15:00,63.5,62.0,28.98,WNW,297,3.0,5.0,95,0.00,,,0.00,Wunderground v.1.15,2013-06-17 09:15:00,
2013-06-17 05:20:00,63.4,61.9,28.98,WNW,290,2.0,2.0,95,0.00,,,0.00,Wunderground v.1.15,2013-06-17 09:20:00,
2013-06-17 05:25:00,63.3,61.5,28.98,WNW,301,1.0,5.0,94,0.00,,,0.00,Wunderground v.1.15,2013-06-17 09:25:00,
2013-06-17 05:30:00,63.3,61.8,28.98,West,264,2.0,5.0,95,0.00,,,0.00,Wunderground v.1.15,2013-06-17 09:30:00,
2013-06-17 05:35:00,63.2,61.7,28.98,WNW,295,2.0,7.0,95,0.00,,,0.00,Wunderground v.1.15,2013-06-17 09:35:00,
2013-06-17 05:45:00,63.3,61.8,28.99,WNW,299,3.0,5.0,95,0.00,,,0.00,Wunderground v.1.15,2013-06-17 09:45:00,
2013-06-17 05:50:00,63.2,61.7,28.99,West,273,2.0,2.0,95,0.00,,,0.00,Wunderground v.1.15,2013-06-17 09:50:00,
2013-06-17 05:55:00,63.2,61.7,28.99,WNW,293,2.0,5.0,95,0.00,,,0.00,Wunderground v.1.15,2013-06-17 09:55:00,
2013-06-17 06:05:00,63.3,61.8,28.99,WNW,298,2.0,5.0,95,0.00,,,0.00,Wunderground v.1.15,2013-06-17 10:05:00,
2013-06-17 06:10:00,63.5,62.0,28.99,WNW,286,1.0,1.0,95,0.00,,,0.00,Wunderground v.1.15,2013-06-17 10:10:00,
2013-06-17 06:19:00,63.9,62.4,28.98,WNW,301,1.0,1.0,95,0.00,,,0.00,Wunderground v.1.15,2013-06-17 10:19:00,
2013-06-17 06:24:00,64.3,62.8,28.99,WNW,282,1.0,3.0,95,0.00,,,0.00,Wunderground v.1.15,2013-06-17 10:24:00,
2013-06-17 06:29:00,64.5,62.7,28.99,WNW,300,1.0,5.0,94,0.00,,,0.00,Wunderground v.1.15,2013-06-17 10:29:00,
2013-06-17 06:34:00,64.8,63.0,28.99,WNW,296,2.0,5.0,94,0.00,,,0.00,Wunderground v.1.15,2013-06-17 10:34:00,
2013-06-17 06:39:00,65.0,62.9,28.99,WNW,291,2.0,2.0,93,0.00,,,0.00,Wunderground v.1.15,2013-06-17 10:39:00,
2013-06-17 06:45:00,65.4,63.3,28.99,WNW,297,2.0,5.0,93,0.00,,,0.00,Wunderground v.1.15,2013-06-17 10:45:00,
2013-06-17 06:50:00,65.9,63.8,28.99,WNW,294,1.0,1.0,93,0.00,,,0.00,Wunderground v.1.15,2013-06-17 10:50:00,
2013-06-17 06:55:00,66.6,64.2,28.99,WNW,295,0.0,5.0,92,0.00,,,0.00,Wunderground v.1.15,2013-06-17 10:55:00,
2013-06-17 07:00:00,66.8,63.8,29.00,West,271,1.0,5.0,90,0.00,,,0.00,Wunderground v.1.15,2013-06-17 11:00:00,
2013-06-17 07:05:00,67.3,64.3,29.00,WNW,292,1.0,5.0,90,0.00,,,0.00,Wunderground v.1.15,2013-06-17 11:05:00,
2013-06-17 07:10:00,68.1,64.7,29.00,WNW,302,0.0,5.0,89,0.00,,,0.00,Wunderground v.1.15,2013-06-17 11:10:00,
2013-06-17 07:15:00,68.7,65.0,29.00,WNW,300,0.0,5.0,88,0.00,,,0.00,Wunderground v.1.15,2013-06-17 11:15:00,
2013-06-17 07:25:00,69.8,65.1,29.00,WNW,302,0.0,5.0,85,0.00,,,0.00,Wunderground v.1.15,2013-06-17 11:25:00,
2013-06-17 07:30:00,70.2,65.1,29.00,WNW,290,1.0,1.0,84,0.00,,,0.00,Wunderground v.1.15,2013-06-17 11:30:00,
2013-06-17 07:35:00,70.3,64.9,29.00,WNW,290,1.0,5.0,83,0.00,,,0.00,Wunderground v.1.15,2013-06-17 11:35:00,
2013-06-17 07:40:00,70.8,65.4,29.00,WNW,303,1.0,5.0,83,0.00,,,0.00,Wunderground v.1.15,2013-06-17 11:40:00,
2013-06-17 07:45:00,71.3,65.5,29.00,WNW,295,1.0,5.0,82,0.00,,,0.00,Wunderground v.1.15,2013-06-17 11:45:00,
2013-06-17 07:55:00,71.9,65.8,29.00,WNW,288,1.0,4.0,81,0.00,,,0.00,Wunderground v.1.15,2013-06-17 11:55:00,
2013-06-17 08:00:00,72.1,65.6,29.00,West,275,1.0,5.0,80,0.00,,,0.00,Wunderground v.1.15,2013-06-17 12:00:00,
2013-06-17 08:05:00,71.9,65.4,29.00,WNW,286,2.0,5.0,80,0.00,,,0.00,Wunderground v.1.15,2013-06-17 12:05:00,
2013-06-17 08:10:00,71.8,64.9,29.00,NW,307,2.0,2.0,79,0.00,,,0.00,Wunderground v.1.15,2013-06-17 12:10:00,
2013-06-17 08:15:00,71.9,65.0,29.01,NW,304,2.0,3.0,79,0.00,,,0.00,Wunderground v.1.15,2013-06-17 12:15:00,
2013-06-17 08:20:00,72.2,65.3,29.00,WNW,298,1.0,1.0,79,0.00,,,0.00,Wunderground v.1.15,2013-06-17 12:20:00,
2013-06-17 08:30:00,72.8,65.5,29.00,West,277,1.0,1.0,78,0.00,,,0.00,Wunderground v.1.15,2013-06-17 12:30:00,
2013-06-17 08:35:00,73.5,65.8,29.00,WNW,294,1.0,2.0,77,0.00,,,0.00,Wunderground v.1.15,2013-06-17 12:35:00,
2013-06-17 08:40:00,73.9,65.5,29.00,WNW,288,1.0,5.0,75,0.00,,,0.00,Wunderground v.1.15,2013-06-17 12:40:00,
2013-06-17 08:45:00,73.9,65.9,29.00,WNW,292,1.0,5.0,76,0.00,,,0.00,Wunderground v.1.15,2013-06-17 12:45:00,
2013-06-17 08:50:00,74.3,65.9,29.00,West,281,1.0,5.0,75,0.00,,,0.00,Wunderground v.1.15,2013-06-17 12:50:00,
2013-06-17 08:55:00,74.6,65.4,28.99,WNW,298,2.0,5.0,73,0.00,,,0.00,Wunderground v.1.15,2013-06-17 12:55:00,
2013-06-17 09:00:00,74.8,65.2,28.99,West,271,2.0,7.0,72,0.00,,,0.00,Wunderground v.1.15,2013-06-17 13:00:00,
2013-06-17 09:05:00,74.8,65.6,28.99,WNW,301,2.0,7.0,73,0.00,,,0.00,Wunderground v.1.15,2013-06-17 13:05:00,
2013-06-17 09:10:00,75.3,66.0,28.99,WNW,294,1.0,5.0,73,0.00,,,0.00,Wunderground v.1.15,2013-06-17 13:10:00,
2013-06-17 09:15:00,75.8,66.1,28.99,NNW,331,1.0,5.0,72,0.00,,,0.00,Wunderground v.1.15,2013-06-17 13:15:00,
2013-06-17 09:20:00,76.5,66.0,28.99,NW,308,1.0,1.0,70,0.00,,,0.00,Wunderground v.1.15,2013-06-17 13:20:00,
2013-06-17 09:25:00,76.8,65.9,28.99,West,273,1.0,7.0,69,0.00,,,0.00,Wunderground v.1.15,2013-06-17 13:25:00,
2013-06-17 09:35:00,76.9,66.8,28.99,NW,306,1.0,5.0,71,0.00,,,0.00,Wunderground v.1.15,2013-06-17 13:35:00,
2013-06-17 09:40:00,77.4,66.4,28.99,NW,306,1.0,1.0,69,0.00,,,0.00,Wunderground v.1.15,2013-06-17 13:40:00,
2013-06-17 09:45:00,77.5,66.5,28.99,NW,324,1.0,4.0,69,0.00,,,0.00,Wunderground v.1.15,2013-06-17 13:45:00,
2013-06-17 09:50:00,77.9,66.1,28.98,WNW,288,1.0,1.0,67,0.00,,,0.00,Wunderground v.1.15,2013-06-17 13:50:00,
2013-06-17 09:59:00,78.1,65.4,28.99,NW,309,2.0,5.0,65,0.00,,,0.00,Wunderground v.1.15,2013-06-17 13:59:00,
2013-06-17 10:05:00,78.2,65.5,28.99,NW,308,2.0,5.0,65,0.00,,,0.00,Wunderground v.1.15,2013-06-17 14:05:00,
2013-06-17 10:10:00,78.5,65.3,28.99,NW,324,3.0,5.0,64,0.00,,,0.00,Wunderground v.1.15,2013-06-17 14:10:00,
2013-06-17 10:15:00,78.9,66.1,28.99,WNW,301,2.0,5.0,65,0.00,,,0.00,Wunderground v.1.15,2013-06-17 14:15:00,
2013-06-17 10:20:00,78.6,65.4,28.99,NNW,332,2.0,2.0,64,0.00,,,0.00,Wunderground v.1.15,2013-06-17 14:20:00,
2013-06-17 10:25:00,78.3,65.6,28.99,NNW,342,2.0,5.0,65,0.00,,,0.00,Wunderground v.1.15,2013-06-17 14:25:00,
2013-06-17 10:30:00,78.0,66.2,28.99,North,355,2.0,5.0,67,0.00,,,0.00,Wunderground v.1.15,2013-06-17 14:30:00,
2013-06-17 10:40:00,76.9,64.7,28.99,North,355,4.0,5.0,66,0.00,,,0.00,Wunderground v.1.15,2013-06-17 14:40:00,
2013-06-17 10:45:00,76.2,64.0,28.99,NNW,342,4.0,5.0,66,0.00,,,0.00,Wunderground v.1.15,2013-06-17 14:45:00,
2013-06-17 10:50:00,75.8,64.9,28.99,NNW,331,3.0,6.0,69,0.00,,,0.00,Wunderground v.1.15,2013-06-17 14:50:00,
2013-06-17 10:55:00,76.2,65.7,29.00,North,349,2.0,6.0,70,0.00,,,0.00,Wunderground v.1.15,2013-06-17 14:55:00,
2013-06-17 11:00:00,77.7,67.1,29.00,NNW,336,2.0,7.0,70,0.00,,,0.00,Wunderground v.1.15,2013-06-17 15:00:00,
2013-06-17 11:09:00,79.3,67.0,29.00,NNW,340,2.0,7.0,66,0.00,,,0.00,Wunderground v.1.15,2013-06-17 15:09:00,
2013-06-17 11:14:00,79.4,66.2,29.01,North,360,3.0,7.0,64,0.00,,,0.00,Wunderground v.1.15,2013-06-17 15:14:00,
2013-06-17 11:19:00,79.3,66.5,29.01,NW,311,4.0,5.0,65,0.00,,,0.00,Wunderground v.1.15,2013-06-17 15:19:00,
2013-06-17 11:24:00,79.4,65.7,29.01,NNW,348,4.0,5.0,63,0.00,,,0.00,Wunderground v.1.15,2013-06-17 15:24:00,
2013-06-17 11:29:00,79.1,66.3,29.01,NNW,347,4.0,4.0,65,0.00,,,0.00,Wunderground v.1.15,2013-06-17 15:29:00,
2013-06-17 11:34:00,78.7,65.5,29.01,North,355,2.0,5.0,64,0.00,,,0.00,Wunderground v.1.15,2013-06-17 15:34:00,
2013-06-17 11:40:00,79.1,65.4,29.02,NW,319,3.0,6.0,63,0.00,,,0.00,Wunderground v.1.15,2013-06-17 15:40:00,
2013-06-17 11:45:00,79.3,65.6,29.01,WNW,302,4.0,6.0,63,0.00,,,0.00,Wunderground v.1.15,2013-06-17 15:45:00,
2013-06-17 11:50:00,79.6,66.8,29.01,NNW,345,2.0,2.0,65,0.00,,,0.00,Wunderground v.1.15,2013-06-17 15:50:00,
2013-06-17 12:00:00,78.4,66.1,29.01,WNW,296,0.0,5.0,66,0.00,,,0.00,Wunderground v.1.15,2013-06-17 16:00:00,
2013-06-17 12:05:00,77.8,66.4,29.01,NW,326,0.0,5.0,68,0.00,,,0.00,Wunderground v.1.15,2013-06-17 16:05:00,
2013-06-17 12:10:00,77.8,66.8,29.01,NNW,340,1.0,5.0,69,0.00,,,0.00,Wunderground v.1.15,2013-06-17 16:10:00,
2013-06-17 12:19:00,77.3,65.9,29.01,NNW,339,2.0,2.0,68,0.00,,,0.00,Wunderground v.1.15,2013-06-17 16:19:00,
2013-06-17 12:24:00,77.8,66.8,29.01,NW,317,3.0,8.0,69,0.00,,,0.00,Wunderground v.1.15,2013-06-17 16:24:00,
2013-06-17 12:29:00,78.5,67.1,29.01,NW,306,3.0,3.0,68,0.00,,,0.00,Wunderground v.1.15,2013-06-17 16:29:00,
2013-06-17 12:34:00,79.2,67.3,29.01,NNW,340,2.0,5.0,67,0.00,,,0.00,Wunderground v.1.15,2013-06-17 16:34:00,
2013-06-17 12:39:00,79.7,67.3,29.01,North,350,1.0,5.0,66,0.00,,,0.00,Wunderground v.1.15,2013-06-17 16:39:00,
2013-06-17 12:49:00,80.1,67.7,29.01,NNW,339,2.0,5.0,66,0.00,,,0.00,Wunderground v.1.15,2013-06-17 16:49:00,
2013-06-17 12:54:00,80.7,67.4,29.01,North,360,2.0,5.0,64,0.00,,,0.00,Wunderground v.1.15,2013-06-17 16:54:00,
2013-06-17 12:59:00,81.1,65.9,29.01,NNW,333,4.0,6.0,60,0.00,,,0.00,Wunderground v.1.15,2013-06-17 16:59:00,
2013-06-17 13:04:00,81.5,65.8,29.01,NNW,348,5.0,6.0,59,0.00,,,0.00,Wunderground v.1.15,2013-06-17 17:04:00,
2013-06-17 13:09:00,81.8,65.1,29.01,North,5,6.0,6.0,57,0.00,,,0.00,Wunderground v.1.15,2013-06-17 17:09:00,
2013-06-17 13:14:00,82.0,65.3,29.01,North,349,6.0,6.0,57,0.00,,,0.00,Wunderground v.1.15,2013-06-17 17:14:00,
2013-06-17 13:20:00,82.1,64.8,29.01,NNE,29,7.0,11.0,56,0.00,,,0.00,Wunderground v.1.15,2013-06-17 17:20:00,
2013-06-17 13:25:00,82.0,64.2,29.01,NE,36,8.0,11.0,55,0.00,,,0.00,Wunderground v.1.15,2013-06-17 17:25:00,
2013-06-17 13:30:00,80.1,65.4,29.02,ENE,58,7.0,7.0,61,0.00,,,0.00,Wunderground v.1.15,2013-06-17 17:30:00,
2013-06-17 13:35:00,76.8,65.0,29.01,NE,45,7.0,7.0,67,0.00,,,0.00,Wunderground v.1.15,2013-06-17 17:35:00,
2013-06-17 13:40:00,76.4,65.9,29.01,NNE,32,7.0,7.0,70,0.00,,,0.00,Wunderground v.1.15,2013-06-17 17:40:00,
2013-06-17 13:45:00,76.9,66.0,29.01,ENE,63,6.0,7.0,69,0.00,,,0.00,Wunderground v.1.15,2013-06-17 17:45:00,
2013-06-17 13:54:00,78.4,65.7,29.02,NNE,21,7.0,10.0,65,0.00,,,0.00,Wunderground v.1.15,2013-06-17 17:54:00,
2013-06-17 13:59:00,77.8,64.6,29.02,NE,48,8.0,8.0,64,0.00,,,0.00,Wunderground v.1.15,2013-06-17 17:59:00,
2013-06-17 14:04:00,77.0,65.2,29.01,NE,53,6.0,8.0,67,0.00,,,0.00,Wunderground v.1.15,2013-06-17 18:04:00,
2013-06-17 14:09:00,77.8,64.2,29.01,NNE,24,6.0,6.0,63,0.00,,,0.00,Wunderground v.1.15,2013-06-17 18:09:00,
2013-06-17 14:14:00,78.3,65.1,29.01,NNE,32,7.0,7.0,64,0.00,,,0.00,Wunderground v.1.15,2013-06-17 18:14:00,
2013-06-17 14:19:00,78.5,64.9,29.01,NE,48,7.0,7.0,63,0.00,,,0.00,Wunderground v.1.15,2013-06-17 18:19:00,
2013-06-17 14:29:00,78.8,65.6,29.01,NE,40,6.0,6.0,64,0.00,,,0.00,Wunderground v.1.15,2013-06-17 18:29:00,
2013-06-17 14:34:00,79.0,65.3,29.01,NNE,29,7.0,7.0,63,0.00,,,0.00,Wunderground v.1.15,2013-06-17 18:34:00,
2013-06-17 14:39:00,78.1,64.9,29.01,NE,36,6.0,6.0,64,0.00,,,0.00,Wunderground v.1.15,2013-06-17 18:39:00,
2013-06-17 14:44:00,78.4,65.2,29.01,NNE,26,7.0,9.0,64,0.00,,,0.00,Wunderground v.1.15,2013-06-17 18:44:00,
2013-06-17 14:49:00,78.2,63.6,29.01,NE,46,7.0,10.0,61,0.00,,,0.00,Wunderground v.1.15,2013-06-17 18:49:00,
2013-06-17 14:55:00,78.4,64.3,29.01,NE,37,7.0,10.0,62,0.00,,,0.00,Wunderground v.1.15,2013-06-17 18:55:00,
2013-06-17 15:00:00,78.3,64.2,29.01,NE,42,7.0,9.0,62,0.00,,,0.00,Wunderground v.1.15,2013-06-17 19:00:00,
2013-06-17 15:05:00,78.1,63.6,29.01,NNE,27,8.0,9.0,61,0.00,,,0.00,Wunderground v.1.15,2013-06-17 19:05:00,
2013-06-17 15:10:00,78.1,64.0,29.01,NE,39,7.0,7.0,62,0.00,,,0.00,Wunderground v.1.15,2013-06-17 19:10:00,
2013-06-17 15:15:00,78.4,64.8,29.01,NNE,22,7.0,8.0,63,0.00,,,0.00,Wunderground v.1.15,2013-06-17 19:15:00,
2013-06-17 15:20:00,79.0,63.9,29.01,NNE,19,7.0,7.0,60,0.00,,,0.00,Wunderground v.1.15,2013-06-17 19:20:00,
2013-06-17 15:30:00,79.9,64.3,29.01,NE,40,7.0,7.0,59,0.00,,,0.00,Wunderground v.1.15,2013-06-17 19:30:00,
2013-06-17 15:39:00,78.6,63.1,29.00,NE,41,7.0,7.0,59,0.00,,,0.00,Wunderground v.1.15,2013-06-17 19:39:00,
2013-06-17 15:44:00,77.2,64.1,29.01,NE,47,7.0,7.0,64,0.00,,,0.00,Wunderground v.1.15,2013-06-17 19:44:00,
2013-06-17 15:49:00,77.5,64.4,29.01,NNE,30,6.0,9.0,64,0.00,,,0.00,Wunderground v.1.15,2013-06-17 19:49:00,
2013-06-17 15:54:00,78.3,64.2,29.01,NE,52,7.0,11.0,62,0.00,,,0.00,Wunderground v.1.15,2013-06-17 19:54:00,
2013-06-17 16:04:00,78.2,64.1,29.01,NNE,32,8.0,13.0,62,0.00,,,0.00,Wunderground v.1.15,2013-06-17 20:04:00,
2013-06-17 16:09:00,78.7,64.1,29.01,ENE,58,9.0,15.0,61,0.00,,,0.00,Wunderground v.1.15,2013-06-17 20:09:00,
2013-06-17 16:14:00,78.3,62.3,29.01,NNE,14,9.0,15.0,58,0.00,,,0.00,Wunderground v.1.15,2013-06-17 20:14:00,
2013-06-17 16:19:00,79.0,63.4,29.01,NNE,25,9.0,9.0,59,0.00,,,0.00,Wunderground v.1.15,2013-06-17 20:19:00,
2013-06-17 16:24:00,79.4,62.3,29.01,NNE,15,8.0,9.0,56,0.00,,,0.00,Wunderground v.1.15,2013-06-17 20:24:00,
2013-06-17 16:29:00,79.4,62.3,29.01,NNE,28,9.0,10.0,56,0.00,,,0.00,Wunderground v.1.15,2013-06-17 20:29:00,
2013-06-17 16:35:00,78.9,61.9,29.01,NE,44,10.0,10.0,56,0.00,,,0.00,Wunderground v.1.15,2013-06-17 20:35:00,
2013-06-17 16:45:00,78.6,61.6,29.01,NNE,32,8.0,9.0,56,0.00,,,0.00,Wunderground v.1.15,2013-06-17 20:45:00,
2013-06-17 16:50:00,78.9,62.9,29.01,NNE,25,8.0,8.0,58,0.00,,,0.00,Wunderground v.1.15,2013-06-17 20:50:00,
2013-06-17 16:55:00,78.9,62.9,29.01,NNE,31,7.0,9.0,58,0.00,,,0.00,Wunderground v.1.15,2013-06-17 20:55:00,
2013-06-17 17:00:00,78.8,63.3,29.01,NE,37,6.0,6.0,59,0.00,,,0.00,Wunderground v.1.15,2013-06-17 21:00:00,
2013-06-17 17:09:00,78.1,63.1,29.02,NE,36,4.0,4.0,60,0.00,,,0.00,Wunderground v.1.15,2013-06-17 21:09:00,
2013-06-17 17:14:00,77.7,62.7,29.02,NE,46,4.0,5.0,60,0.00,,,0.00,Wunderground v.1.15,2013-06-17 21:14:00,
2013-06-17 17:19:00,77.8,63.7,29.02,NE,36,4.0,5.0,62,0.00,,,0.00,Wunderground v.1.15,2013-06-17 21:19:00,
2013-06-17 17:24:00,78.2,62.2,29.02,NE,36,5.0,10.0,58,0.00,,,0.00,Wunderground v.1.15,2013-06-17 21:24:00,
2013-06-17 17:29:00,78.1,62.1,29.02,NNE,25,7.0,8.0,58,0.00,,,0.00,Wunderground v.1.15,2013-06-17 21:29:00,
2013-06-17 17:34:00,78.2,63.2,29.02,NE,38,6.0,8.0,60,0.00,,,0.00,Wunderground v.1.15,2013-06-17 21:34:00,
2013-06-17 17:44:00,78.7,62.7,29.02,NNE,16,7.0,7.0,58,0.00,,,0.00,Wunderground v.1.15,2013-06-17 21:44:00,
2013-06-17 17:49:00,78.5,62.5,29.01,NE,46,7.0,7.0,58,0.00,,,0.00,Wunderground v.1.15,2013-06-17 21:49:00,
2013-06-17 17:54:00,78.4,62.9,29.01,NNE,28,5.0,7.0,59,0.00,,,0.00,Wunderground v.1.15,2013-06-17 21:54:00,
2013-06-17 17:59:00,78.5,63.5,29.01,NNE,30,5.0,5.0,60,0.00,,,0.00,Wunderground v.1.15,2013-06-17 21:59:00,
2013-06-17 18:04:00,78.3,62.8,29.01,NE,36,4.0,6.0,59,0.00,,,0.00,Wunderground v.1.15,2013-06-17 22:04:00,
2013-06-17 18:10:00,78.2,62.2,29.02,NE,48,4.0,4.0,58,0.00,,,0.00,Wunderground v.1.15,2013-06-17 22:10:00,
2013-06-17 18:15:00,77.8,61.8,29.02,NE,44,4.0,5.0,58,0.00,,,0.00,Wunderground v.1.15,2013-06-17 22:15:00,
2013-06-17 18:20:00,77.1,61.7,29.01,NE,44,4.0,5.0,59,0.00,,,0.00,Wunderground v.1.15,2013-06-17 22:20:00,
2013-06-17 18:25:00,76.6,62.1,29.01,NE,45,4.0,5.0,61,0.00,,,0.00,Wunderground v.1.15,2013-06-17 22:25:00,
2013-06-17 18:30:00,76.0,62.0,29.01,ENE,59,3.0,5.0,62,0.00,,,0.00,Wunderground v.1.15,2013-06-17 22:30:00,
2013-06-17 18:35:00,75.5,61.6,29.01,NE,53,2.0,5.0,62,0.00,,,0.00,Wunderground v.1.15,2013-06-17 22:35:00,
2013-06-17 18:45:00,74.2,62.1,29.01,ESE,108,3.0,4.0,66,0.00,,,0.00,Wunderground v.1.15,2013-06-17 22:45:00,
2013-06-17 18:50:00,73.5,61.0,29.01,ENE,75,5.0,6.0,65,0.00,,,0.00,Wunderground v.1.15,2013-06-17 22:50:00,
2013-06-17 18:55:00,73.1,61.5,29.01,ENE,74,5.0,6.0,67,0.00,,,0.00,Wunderground v.1.15,2013-06-17 22:55:00,
2013-06-17 19:00:00,72.5,60.9,29.01,ENE,69,4.0,5.0,67,0.00,,,0.00,Wunderground v.1.15,2013-06-17 23:00:00,
2013-06-17 19:05:00,71.8,60.2,29.02,East,101,5.0,5.0,67,0.00,,,0.00,Wunderground v.1.15,2013-06-17 23:05:00,
2013-06-17 19:10:00,71.6,60.5,29.02,ENE,65,6.0,6.0,68,0.00,,,0.00,Wunderground v.1.15,2013-06-17 23:10:00,
2013-06-17 19:20:00,71.4,59.9,29.03,ESE,106,4.0,5.0,67,0.00,,,0.00,Wunderground v.1.15,2013-06-17 23:20:00,
2013-06-17 19:25:00,71.2,59.7,29.02,NE,46,5.0,5.0,67,0.00,,,0.00,Wunderground v.1.15,2013-06-17 23:25:00,
2013-06-17 19:30:00,71.1,60.0,29.02,ENE,68,4.0,6.0,68,0.00,,,0.00,Wunderground v.1.15,2013-06-17 23:30:00,
2013-06-17 19:35:00,70.8,59.7,29.02,ESE,121,5.0,7.0,68,0.00,,,0.00,Wunderground v.1.15,2013-06-17 23:35:00,
2013-06-17 19:40:00,70.4,60.1,29.02,ESE,117,7.0,7.0,70,0.00,,,0.00,Wunderground v.1.15,2013-06-17 23:40:00,
2013-06-17 19:50:00,70.1,60.3,29.03,ESE,111,5.0,9.0,71,0.00,,,0.00,Wunderground v.1.15,2013-06-17 23:50:00,
2013-06-17 19:55:00,70.0,60.2,29.03,ESE,115,5.0,9.0,71,0.00,,,0.00,Wunderground v.1.15,2013-06-17 23:55:00,
2013-06-17 20:00:00,69.9,60.8,29.03,ESE,103,5.0,5.0,73,0.00,,,0.00,Wunderground v.1.15,2013-06-18 00:00:00,
2013-06-17 20:05:00,69.6,60.6,29.03,ESE,113,3.0,5.0,73,0.00,,,0.00,Wunderground v.1.15,2013-06-18 00:05:00,
2013-06-17 20:10:00,69.5,60.5,29.03,ESE,120,3.0,3.0,73,0.00,,,0.00,Wunderground v.1.15,2013-06-18 00:10:00,
2013-06-17 20:15:00,69.4,60.4,29.03,ESE,112,2.0,5.0,73,0.00,,,0.00,Wunderground v.1.15,2013-06-18 00:15:00,
2013-06-17 20:24:00,69.3,60.7,29.03,ESE,119,1.0,5.0,74,0.00,,,0.00,Wunderground v.1.15,2013-06-18 00:24:00,
2013-06-17 20:29:00,69.2,60.9,29.03,ESE,119,0.0,5.0,75,0.00,,,0.00,Wunderground v.1.15,2013-06-18 00:29:00,
2013-06-17 20:35:00,68.9,60.6,29.03,ESE,119,0.0,5.0,75,0.00,,,0.00,Wunderground v.1.15,2013-06-18 00:35:00,
2013-06-17 20:40:00,68.9,60.6,29.04,ESE,119,0.0,5.0,75,0.00,,,0.00,Wunderground v.1.15,2013-06-18 00:40:00,
2013-06-17 20:45:00,68.8,60.6,29.04,ESE,118,0.0,5.0,75,0.00,,,0.00,Wunderground v.1.15,2013-06-18 00:45:00,
2013-06-17 20:54:00,68.6,60.4,29.04,ESE,118,0.0,5.0,75,0.00,,,0.00,Wunderground v.1.15,2013-06-18 00:54:00,
2013-06-17 20:59:00,68.6,60.0,29.05,ESE,117,0.0,5.0,74,0.00,,,0.00,Wunderground v.1.15,2013-06-18 00:59:00,
2013-06-17 21:04:00,68.5,60.3,29.05,ESE,117,0.0,5.0,75,0.00,,,0.00,Wunderground v.1.15,2013-06-18 01:04:00,
2013-06-17 21:09:00,68.3,60.1,29.05,ESE,117,0.0,5.0,75,0.00,,,0.00,Wunderground v.1.15,2013-06-18 01:09:00,
2013-06-17 21:14:00,68.2,60.0,29.05,ESE,105,1.0,5.0,75,0.00,,,0.00,Wunderground v.1.15,2013-06-18 01:14:00,
2013-06-17 21:19:00,67.9,59.7,29.04,East,82,1.0,5.0,75,0.00,,,0.00,Wunderground v.1.15,2013-06-18 01:19:00,
2013-06-17 21:25:00,67.7,59.5,29.05,East,82,1.0,5.0,75,0.00,,,0.00,Wunderground v.1.15,2013-06-18 01:25:00,
2013-06-17 21:30:00,67.6,59.4,29.05,East,82,0.0,5.0,75,0.00,,,0.00,Wunderground v.1.15,2013-06-18 01:30:00,
2013-06-17 21:35:00,67.5,59.7,29.05,East,82,0.0,5.0,76,0.00,,,0.00,Wunderground v.1.15,2013-06-18 01:35:00,
2013-06-17 21:40:00,67.3,59.5,29.06,East,82,0.0,5.0,76,0.00,,,0.00,Wunderground v.1.15,2013-06-18 01:40:00,
2013-06-17 21:45:00,67.2,59.7,29.06,East,82,0.0,5.0,77,0.00,,,0.00,Wunderground v.1.15,2013-06-18 01:45:00,
2013-06-17 21:50:00,67.0,59.2,29.06,East,82,0.0,5.0,76,0.00,,,0.00,Wunderground v.1.15,2013-06-18 01:50:00,
2013-06-17 22:00:00,66.7,58.9,29.06,East,82,0.0,5.0,76,0.00,,,0.00,Wunderground v.1.15,2013-06-18 02:00:00,
2013-06-17 22:05:00,66.5,59.1,29.07,East,82,0.0,5.0,77,0.00,,,0.00,Wunderground v.1.15,2013-06-18 02:05:00,
2013-06-17 22:10:00,66.3,58.9,29.07,East,82,0.0,5.0,77,0.00,,,0.00,Wunderground v.1.15,2013-06-18 02:10:00,
2013-06-17 22:15:00,66.2,58.8,29.07,East,82,0.0,5.0,77,0.00,,,0.00,Wunderground v.1.15,2013-06-18 02:15:00,
2013-06-17 22:20:00,66.2,58.8,29.07,East,82,0.0,5.0,77,0.00,,,0.00,Wunderground v.1.15,2013-06-18 02:20:00,
2013-06-17 22:25:00,66.2,58.4,29.07,East,82,0.0,5.0,76,0.00,,,0.00,Wunderground v.1.15,2013-06-18 02:25:00,
2013-06-17 22:35:00,66.1,58.7,29.07,East,82,1.0,5.0,77,0.00,,,0.00,Wunderground v.1.15,2013-06-18 02:35:00,
2013-06-17 22:40:00,65.9,58.1,29.07,East,82,1.0,1.0,76,0.00,,,0.00,Wunderground v.1.15,2013-06-18 02:40:00,
2013-06-17 22:45:00,65.9,58.5,29.07,East,82,1.0,5.0,77,0.00,,,0.00,Wunderground v.1.15,2013-06-18 02:45:00,
2013-06-17 22:50:00,65.8,58.4,29.07,East,82,0.0,5.0,77,0.00,,,0.00,Wunderground v.1.15,2013-06-18 02:50:00,
2013-06-17 22:55:00,65.8,58.4,29.07,East,82,0.0,5.0,77,0.00,,,0.00,Wunderground v.1.15,2013-06-18 02:55:00,
2013-06-17 23:05:00,65.6,58.6,29.07,East,82,0.0,5.0,78,0.00,,,0.00,Wunderground v.1.15,2013-06-18 03:05:00,
2013-06-17 23:15:00,65.0,58.0,29.06,East,82,0.0,5.0,78,0.00,,,0.00,Wunderground v.1.15,2013-06-18 03:15:00,
2013-06-17 23:20:00,65.0,58.0,29.06,East,82,0.0,5.0,78,0.00,,,0.00,Wunderground v.1.15,2013-06-18 03:20:00,
2013-06-17 23:25:00,64.8,58.1,29.06,East,82,0.0,5.0,79,0.00,,,0.00,Wunderground v.1.15,2013-06-18 03:25:00,
2013-06-17 23:30:00,64.6,57.9,29.06,East,82,0.0,5.0,79,0.00,,,0.00,Wunderground v.1.15,2013-06-18 03:30:00,
2013-06-17 23:40:00,64.5,57.5,29.07,East,82,0.0,5.0,78,0.00,,,0.00,Wunderground v.1.15,2013-06-18 03:40:00,
2013-06-17 23:45:00,64.4,57.4,29.07,East,82,0.0,5.0,78,0.00,,,0.00,Wunderground v.1.15,2013-06-18 03:45:00,
2013-06-17 23:50:00,64.4,57.7,29.07,East,82,0.0,5.0,79,0.00,,,0.00,Wunderground v.1.15,2013-06-18 03:50:00,
2013-06-17 23:55:00,64.3,57.6,29.07,East,82,0.0,5.0,79,0.00,,,0.00,Wunderground v.1.15,2013-06-18 03:55:00,